.
WxDataArchive / Data Records for 2016-05-04
2016-05-03 May 2016 2016-05-05

Data Records for Wednesday, 04 May 2016

Time	Temp	Chill	HIndex	Humid	Dewpt	 Wind 	HiWind	WindDir	Rain 	Barom
-----	----	-----	------	-----	-----	------	------	-------	-----	-----
00:00	52.0	52.0	52.0	74	44.0	0	0	---	0.00	29.745 
00:05	52.2	52.2	52.2	73	43.8	0	1	315	0.00	29.745 
00:10	52.5	52.5	52.5	73	44.1	0	0	---	0.00	29.745 
00:15	52.6	52.6	52.6	73	44.2	0	0	---	0.00	29.734 
00:20	52.8	52.8	52.8	72	44.0	0	0	---	0.00	29.734 
00:25	52.8	52.8	52.8	72	44.0	0	0	---	0.00	29.734 
00:30	52.8	52.8	52.8	72	44.0	0	1	315	0.00	29.729 
00:35	52.8	52.8	52.8	72	44.0	0	0	---	0.00	29.729 
00:40	52.8	52.8	52.8	72	44.0	0	0	---	0.00	29.729 
00:45	52.8	52.8	52.8	72	44.0	0	1	315	0.00	29.724 
00:50	52.6	52.6	52.6	73	44.2	0	0	---	0.00	29.724 
00:55	52.8	52.8	52.8	73	44.4	0	1	315	0.00	29.724 
01:00	52.8	52.8	52.8	73	44.4	0	0	---	0.00	29.719 
01:05	52.8	52.8	52.8	73	44.4	0	1	315	0.00	29.719 
01:10	52.9	52.9	52.9	73	44.5	0	0	---	0.00	29.719 
01:15	52.9	52.9	52.9	73	44.5	0	0	---	0.00	29.710 
01:20	53.1	53.1	53.1	72	44.3	0	1	315	0.00	29.710 
01:25	53.1	53.1	53.1	71	43.9	0	2	315	0.00	29.710 
01:30	53.2	53.2	53.2	71	44.0	0	2	315	0.00	29.702 
01:35	53.3	53.3	53.3	70	43.8	0	2	315	0.00	29.702 
01:40	53.5	53.5	53.5	70	44.0	0	2	45	0.00	29.702 
01:45	53.5	53.5	53.5	69	43.6	0	4	90	0.00	29.694 
01:50	53.5	53.5	53.5	70	44.0	0	2	90	0.00	29.694 
01:55	53.5	53.5	53.5	70	44.0	0	1	90	0.00	29.694 
02:00	53.5	53.5	53.5	70	44.0	0	1	90	0.00	29.682 
02:05	53.5	53.5	53.5	69	43.6	0	2	90	0.00	29.682 
02:10	53.5	53.5	53.5	69	43.6	0	1	90	0.00	29.682 
02:15	53.6	53.6	53.6	69	43.7	0	2	90	0.00	29.678 
02:20	53.6	53.6	53.6	69	43.7	0	1	90	0.00	29.678 
02:25	53.6	53.6	53.6	69	43.7	0	1	90	0.00	29.678 
02:30	53.6	53.6	53.6	69	43.7	0	2	90	0.00	29.666 
02:35	53.6	53.6	53.6	69	43.7	0	2	90	0.00	29.666 
02:40	53.5	53.5	53.5	69	43.6	0	2	90	0.00	29.666 
02:45	53.5	53.5	53.5	69	43.6	0	2	90	0.00	29.662 
02:50	53.3	53.3	53.3	70	43.8	0	1	90	0.00	29.662 
02:55	53.3	53.3	53.3	70	43.8	0	1	90	0.00	29.662 
03:00	53.2	53.2	53.2	71	44.0	0	1	90	0.00	29.652 
03:05	53.1	53.1	53.1	71	43.9	0	1	90	0.00	29.652 
03:10	52.9	52.9	52.9	71	43.8	0	0	---	0.00	29.652 
03:15	52.8	52.8	52.8	71	43.7	0	1	90	0.00	29.645 
03:20	52.8	52.8	52.8	71	43.7	0	1	90	0.00	29.645 
03:25	52.6	52.6	52.6	71	43.5	0	2	90	0.00	29.645 
03:30	52.6	52.6	52.6	70	43.1	0	1	90	0.00	29.634 
03:35	52.8	52.8	52.8	70	43.3	0	1	90	0.00	29.634 
03:40	52.8	52.8	52.8	69	42.9	0	2	90	0.00	29.634 
03:45	52.9	52.9	52.9	69	43.0	0	2	90	0.00	29.631 
03:50	52.9	52.9	52.9	70	43.4	0	1	90	0.00	29.631 
03:55	52.9	52.9	52.9	70	43.4	0	1	90	0.00	29.631 
04:00	52.8	52.8	52.8	70	43.3	0	1	90	0.00	29.623 
04:05	52.8	52.8	52.8	70	43.3	0	1	90	0.00	29.623 
04:10	52.6	52.6	52.6	71	43.5	0	0	---	0.00	29.623 
04:15	52.5	52.5	52.5	71	43.4	0	1	90	0.00	29.620 
04:20	52.5	52.5	52.5	72	43.7	0	2	90	0.00	29.620 
04:25	52.5	52.5	52.5	72	43.7	0	5	90	0.00	29.620 
04:30	52.5	52.5	52.5	72	43.7	0	3	90	0.00	29.617 
04:35	52.5	52.5	52.5	73	44.1	0	1	90	0.00	29.617 
04:40	52.3	52.3	52.3	73	43.9	0	1	90	0.00	29.617 
04:45	52.3	52.3	52.3	73	43.9	0	1	90	0.00	29.611 
04:50	52.3	52.3	52.3	74	44.3	0	1	90	0.00	29.611 
04:55	52.2	52.2	52.2	74	44.2	0	1	90	0.00	29.611 
05:00	52.0	52.0	52.0	74	44.0	0	1	90	0.00	29.602 
05:05	52.0	52.0	52.0	75	44.3	0	1	90	0.00	29.602 
05:10	51.9	51.9	51.9	75	44.2	0	0	---	0.00	29.602 
05:15	51.9	51.9	51.9	75	44.2	0	0	---	0.00	29.601 
05:20	51.9	51.9	51.9	75	44.2	0	2	90	0.00	29.601 
05:25	51.9	51.9	51.9	76	44.6	0	0	---	0.00	29.601 
05:30	51.7	51.7	51.7	76	44.4	0	1	90	0.00	29.595 
05:35	51.7	51.7	51.7	76	44.4	0	2	90	0.00	29.595 
05:40	51.7	51.7	51.7	76	44.4	0	1	90	0.00	29.595 
05:45	51.7	51.7	51.7	76	44.4	0	1	90	0.00	29.590 
05:50	51.7	51.7	51.7	76	44.4	0	0	---	0.00	29.590 
05:55	51.7	51.7	51.7	77	44.7	0	0	---	0.00	29.590 
06:00	51.7	51.7	51.7	77	44.7	0	0	---	0.00	29.587 
06:05	51.6	51.6	51.6	77	44.6	0	0	---	0.00	29.587 
06:10	51.6	51.6	51.6	77	44.6	0	0	---	0.00	29.587 
06:15	51.6	51.6	51.6	77	44.6	0	1	90	0.00	29.584 
06:20	51.6	51.6	51.6	77	44.6	0	0	---	0.00	29.584 
06:25	51.6	51.6	51.6	77	44.6	0	1	90	0.00	29.584 
06:30	51.6	51.6	51.6	78	45.0	0	1	90	0.00	29.578 
06:35	51.6	51.6	51.6	78	45.0	0	1	90	0.00	29.578 
06:40	51.6	51.6	51.6	78	45.0	0	0	---	0.00	29.578 
06:45	51.4	51.4	51.4	78	44.8	0	0	---	0.00	29.572 
06:50	51.4	51.4	51.4	78	44.8	0	3	90	0.00	29.572 
06:55	51.4	51.4	51.4	78	44.8	0	1	90	0.00	29.572 
07:00	51.4	51.4	51.4	78	44.8	0	0	---	0.00	29.569 
07:05	51.4	51.4	51.4	79	45.1	0	1	90	0.00	29.569 
07:10	51.6	51.6	51.6	79	45.3	0	0	---	0.00	29.569 
07:15	51.6	51.6	51.6	79	45.3	0	1	90	0.00	29.568 
07:20	51.7	51.7	51.7	79	45.4	0	0	---	0.00	29.568 
07:25	51.7	51.7	51.7	79	45.4	0	1	90	0.00	29.568 
07:30	51.7	51.7	51.7	78	45.1	0	1	90	0.00	29.568 
07:35	51.7	51.7	51.7	78	45.1	0	2	90	0.00	29.568 
07:40	51.9	51.9	51.9	78	45.3	0	0	---	0.00	29.568 
07:45	51.9	51.9	51.9	78	45.3	0	1	90	0.00	29.564 
07:50	51.9	51.9	51.9	78	45.3	0	1	90	0.00	29.564 
07:55	52.0	52.0	52.0	78	45.4	0	1	90	0.00	29.564 
08:00	52.0	52.0	52.0	78	45.4	0	1	90	0.00	29.562 
08:05	52.2	52.2	52.2	77	45.2	0	1	90	0.00	29.562 
08:10	52.2	52.2	52.2	77	45.2	0	2	90	0.00	29.562 
08:15	52.3	52.3	52.3	77	45.3	0	2	90	0.00	29.562 
08:20	52.3	52.3	52.3	77	45.3	0	2	90	0.00	29.562 
08:25	52.3	52.3	52.3	78	45.6	0	1	90	0.00	29.562 
08:30	52.3	52.3	52.3	80	46.3	0	2	90	0.00	29.562 
08:35	51.9	51.9	51.9	81	46.3	1	3	90	0.00	29.562 
08:40	51.6	51.6	51.6	82	46.3	0	2	90	0.00	29.562 
08:45	51.4	51.4	51.4	83	46.4	0	1	90	0.00	29.559 
08:50	51.3	51.3	51.3	83	46.3	0	1	90	0.01	29.559 
08:55	51.3	51.3	51.3	84	46.6	0	2	90	0.00	29.559 
09:00	51.3	51.3	51.3	85	46.9	0	2	90	0.00	29.558 
09:05	51.1	51.1	51.1	85	46.7	1	2	135	0.00	29.558 
09:10	51.1	51.1	51.1	86	47.1	0	1	135	0.01	29.558 
09:15	51.0	51.0	51.0	86	47.0	0	2	135	0.00	29.557 
09:20	51.0	51.0	51.0	87	47.3	0	2	135	0.00	29.557 
09:25	50.8	50.8	50.8	87	47.1	0	2	135	0.01	29.557 
09:30	50.7	50.7	50.7	88	47.3	0	2	135	0.01	29.550 
09:35	50.7	50.7	50.7	88	47.3	0	3	135	0.01	29.550 
09:40	50.5	50.5	50.5	89	47.4	0	4	112	0.00	29.550 
09:45	50.5	50.5	50.5	89	47.4	0	3	112	0.01	29.545 
09:50	50.5	50.5	50.5	90	47.7	0	2	112	0.00	29.545 
09:55	50.5	50.5	50.5	90	47.7	0	2	112	0.01	29.545 
10:00	50.5	50.5	50.5	90	47.7	0	2	112	0.01	29.544 
10:05	50.5	50.5	50.5	91	48.0	0	3	112	0.00	29.544 
10:10	50.5	50.5	50.5	91	48.0	0	2	158	0.00	29.544 
10:15	49.6	49.6	49.6	89	46.5	3	5	292	0.03	29.553 
10:20	48.3	48.3	48.3	89	45.2	1	4	292	0.04	29.553 
10:25	47.7	47.7	47.7	89	44.6	1	4	292	0.00	29.553 
10:30	47.3	47.3	47.3	90	44.5	2	6	292	0.00	29.552 
10:35	47.1	47.1	47.1	90	44.3	1	4	292	0.00	29.552 
10:40	47.1	47.1	47.1	90	44.3	2	7	292	0.00	29.552 
10:45	47.3	47.3	47.3	90	44.5	2	4	315	0.00	29.556 
10:50	47.3	47.3	47.3	90	44.5	2	6	292	0.00	29.556 
10:55	47.4	47.4	47.4	90	44.6	2	6	338	0.00	29.556 
11:00	47.7	47.7	47.7	90	44.9	1	4	292	0.00	29.559 
11:05	47.9	47.9	47.9	90	45.1	1	3	292	0.00	29.559 
11:10	48.0	48.0	48.0	90	45.2	1	4	292	0.00	29.559 
11:15	48.0	48.0	48.0	90	45.2	1	4	292	0.00	29.561 
11:20	48.3	48.3	48.3	91	45.8	1	4	315	0.00	29.561 
11:25	48.6	48.6	48.6	90	45.8	1	4	315	0.00	29.561 
11:30	48.9	48.9	48.9	90	46.1	1	4	315	0.00	29.563 
11:35	48.9	48.9	48.9	89	45.8	1	3	315	0.00	29.563 
11:40	48.9	48.9	48.9	89	45.8	2	6	292	0.00	29.563 
11:45	48.6	48.6	48.6	87	44.9	2	5	292	0.00	29.565 
11:50	48.6	48.6	48.6	86	44.6	2	6	292	0.00	29.565 
11:55	48.9	48.9	48.9	86	44.9	1	4	292	0.00	29.565 
12:00	49.1	49.1	49.1	85	44.8	3	5	292	0.00	29.575 
12:05	48.6	48.6	48.6	84	44.0	3	6	270	0.00	29.575 
12:10	48.5	48.5	48.5	84	43.9	2	5	292	0.00	29.575 
12:15	48.6	48.6	48.6	83	43.7	3	5	292	0.00	29.577 
12:20	48.6	48.6	48.6	83	43.7	3	6	292	0.00	29.577 
12:25	48.6	48.6	48.6	82	43.4	3	6	315	0.00	29.577 
12:30	48.6	48.6	48.6	81	43.0	3	5	292	0.00	29.579 
12:35	48.8	48.8	48.8	80	42.9	3	7	292	0.00	29.579 
12:40	49.2	49.2	49.2	79	43.0	3	6	292	0.00	29.579 
12:45	49.2	49.2	49.2	78	42.6	3	7	292	0.00	29.583 
12:50	49.2	49.2	49.2	77	42.3	2	6	292	0.00	29.583 
12:55	49.4	49.4	49.4	77	42.5	3	7	292	0.00	29.583 
13:00	49.5	49.5	49.5	77	42.6	3	6	270	0.00	29.588 
13:05	49.4	49.4	49.4	77	42.5	2	6	292	0.00	29.588 
13:10	49.1	47.8	49.1	76	41.9	4	10	292	0.00	29.588 
13:15	48.9	47.6	48.9	75	41.3	4	13	315	0.00	29.592 
13:20	49.2	47.9	49.2	75	41.6	4	10	292	0.00	29.592 
13:25	49.4	48.2	49.4	74	41.5	4	12	292	0.00	29.592 
13:30	49.5	49.5	49.5	75	41.9	3	6	292	0.00	29.590 
13:35	49.2	47.9	49.2	75	41.6	4	7	292	0.00	29.590 
13:40	49.1	47.8	49.1	75	41.5	4	7	270	0.00	29.590 
13:45	48.9	47.6	48.9	75	41.3	4	7	270	0.00	29.594 
13:50	48.8	47.5	48.8	75	41.2	4	6	270	0.00	29.594 
13:55	48.8	48.8	48.8	75	41.2	3	6	270	0.00	29.594 
14:00	48.8	48.8	48.8	76	41.6	2	5	292	0.00	29.595 
14:05	48.5	47.1	48.5	76	41.3	4	9	292	0.00	29.595 
14:10	48.3	48.3	48.3	77	41.4	3	7	270	0.00	29.595 
14:15	48.3	48.3	48.3	77	41.4	3	7	270	0.00	29.601 
14:20	48.2	46.8	48.2	76	41.0	4	13	292	0.00	29.601 
14:25	48.0	46.6	48.0	77	41.1	4	7	292	0.00	29.601 
14:30	48.0	48.0	48.0	77	41.1	3	12	292	0.00	29.606 
14:35	48.2	48.2	48.2	77	41.3	2	5	315	0.00	29.606 
14:40	48.2	46.8	48.2	77	41.3	4	10	270	0.00	29.606 
14:45	48.5	48.5	48.5	77	41.6	3	6	315	0.00	29.605 
14:50	48.6	48.6	48.6	76	41.4	3	7	292	0.00	29.605 
14:55	48.5	48.5	48.5	76	41.3	3	10	292	0.00	29.605 
15:00	48.3	48.3	48.3	76	41.1	3	6	315	0.00	29.610 
15:05	48.2	46.8	48.2	76	41.0	4	7	292	0.00	29.610 
15:10	48.2	46.8	48.2	76	41.0	4	6	292	0.00	29.610 
15:15	48.2	48.2	48.2	76	41.0	3	6	292	0.00	29.612 
15:20	48.0	46.6	48.0	76	40.8	4	7	270	0.00	29.612 
15:25	48.0	48.0	48.0	76	40.8	3	7	292	0.00	29.612 
15:30	47.7	46.2	47.7	76	40.5	4	10	292	0.00	29.617 
15:35	47.6	47.6	47.6	77	40.8	3	7	292	0.00	29.617 
15:40	47.6	47.6	47.6	77	40.8	2	10	270	0.00	29.617 
15:45	47.4	47.4	47.4	77	40.6	3	7	270	0.00	29.618 
15:50	47.1	45.5	47.1	77	40.3	4	6	270	0.00	29.618 
15:55	47.1	47.1	47.1	77	40.3	3	6	270	0.00	29.618 
16:00	47.0	44.7	47.0	77	40.2	5	11	292	0.00	29.623 
16:05	47.0	47.0	47.0	77	40.2	3	7	292	0.00	29.623 
16:10	46.8	45.2	46.8	78	40.3	4	6	270	0.00	29.623 
16:15	46.7	45.1	46.7	78	40.2	4	11	292	0.00	29.628 
16:20	46.7	45.1	46.7	77	39.9	4	11	292	0.00	29.628 
16:25	46.7	45.1	46.7	77	39.9	4	11	292	0.00	29.628 
16:30	46.8	44.5	46.8	76	39.6	5	9	292	0.00	29.629 
16:35	46.8	45.2	46.8	76	39.6	4	6	292	0.00	29.629 
16:40	46.8	45.2	46.8	75	39.3	4	10	292	0.00	29.629 
16:45	46.8	45.2	46.8	76	39.6	4	7	315	0.00	29.631 
16:50	46.7	45.1	46.7	76	39.5	4	13	270	0.00	29.631 
16:55	46.7	45.1	46.7	76	39.5	4	7	270	0.00	29.631 
17:00	46.8	46.8	46.8	76	39.6	3	7	292	0.00	29.636 
17:05	46.7	46.7	46.7	76	39.5	3	10	270	0.00	29.636 
17:10	46.2	44.5	46.2	76	39.1	4	7	315	0.00	29.636 
17:15	46.0	44.2	46.0	77	39.2	4	9	292	0.00	29.645 
17:20	45.7	43.9	45.7	77	38.9	4	9	270	0.00	29.645 
17:25	45.5	42.9	45.5	76	38.4	5	11	270	0.00	29.645 
17:30	45.4	43.6	45.4	77	38.6	4	15	270	0.00	29.648 
17:35	45.7	43.9	45.7	76	38.6	4	10	292	0.00	29.648 
17:40	45.8	45.8	45.8	76	38.7	3	8	292	0.00	29.648 
17:45	45.7	43.2	45.7	74	37.9	5	7	292	0.00	29.647 
17:50	45.5	42.9	45.5	74	37.7	5	8	270	0.00	29.647 
17:55	45.5	43.7	45.5	74	37.7	4	9	270	0.00	29.647 
18:00	45.5	42.9	45.5	73	37.4	5	12	270	0.00	29.653 
18:05	45.5	42.9	45.5	72	37.0	5	11	292	0.00	29.653 
18:10	45.4	42.8	45.4	72	36.9	5	10	292	0.00	29.653 
18:15	45.4	42.8	45.4	71	36.6	5	10	270	0.00	29.663 
18:20	45.7	45.7	45.7	71	36.8	3	10	270	0.00	29.663 
18:25	45.7	43.9	45.7	71	36.8	4	10	270	0.00	29.663 
18:30	45.5	43.7	45.5	71	36.7	4	9	270	0.00	29.663 
18:35	45.4	45.4	45.4	72	36.9	3	7	270	0.00	29.663 
18:40	45.1	42.5	45.1	69	35.5	5	10	315	0.00	29.663 
18:45	44.9	43.0	44.9	70	35.7	4	10	315	0.00	29.664 
18:50	44.8	42.9	44.8	70	35.6	4	9	292	0.00	29.664 
18:55	44.6	42.6	44.6	70	35.4	4	12	292	0.00	29.664 
19:00	44.5	42.5	44.5	71	35.7	4	9	292	0.00	29.663 
19:05	44.2	42.2	44.2	72	35.8	4	9	315	0.00	29.663 
19:10	44.1	44.1	44.1	73	36.0	2	6	292	0.00	29.663 
19:15	43.9	41.8	43.9	74	36.2	4	10	292	0.00	29.671 
19:20	43.6	43.6	43.6	75	36.2	3	7	292	0.00	29.671 
19:25	43.2	40.2	43.2	74	35.5	5	10	292	0.00	29.671 
19:30	42.8	39.8	42.8	75	35.4	5	10	292	0.00	29.681 
19:35	42.6	42.6	42.6	76	35.6	2	5	338	0.00	29.681 
19:40	42.5	42.5	42.5	77	35.8	3	8	292	0.00	29.681 
19:45	42.3	42.3	42.3	77	35.6	3	6	292	0.00	29.687 
19:50	42.2	42.2	42.2	78	35.8	2	6	292	0.00	29.687 
19:55	42.2	42.2	42.2	79	36.2	2	5	292	0.00	29.687 
20:00	41.9	41.9	41.9	79	35.9	3	5	292	0.00	29.690 
20:05	41.8	41.8	41.8	80	36.1	1	4	292	0.00	29.690 
20:10	41.6	41.6	41.6	80	35.9	1	4	292	0.00	29.690 
20:15	41.6	41.6	41.6	80	35.9	1	4	292	0.00	29.692 
20:20	41.5	41.5	41.5	80	35.8	2	6	270	0.00	29.692 
20:25	41.3	41.3	41.3	80	35.6	2	5	292	0.00	29.692 
20:30	41.2	41.2	41.2	80	35.5	2	5	292	0.00	29.695 
20:35	41.1	41.1	41.1	81	35.7	3	5	292	0.00	29.695 
20:40	40.9	40.9	40.9	81	35.5	3	9	292	0.00	29.695 
20:45	40.8	40.8	40.8	81	35.4	2	6	292	0.00	29.693 
20:50	40.8	40.8	40.8	81	35.4	1	4	292	0.00	29.693 
20:55	40.8	40.8	40.8	82	35.7	2	5	292	0.00	29.693 
21:00	40.8	40.8	40.8	82	35.7	2	5	292	0.00	29.693 
21:05	40.6	40.6	40.6	82	35.5	2	4	292	0.00	29.693 
21:10	40.5	40.5	40.5	83	35.8	2	5	292	0.00	29.693 
21:15	40.3	40.3	40.3	83	35.6	2	6	315	0.00	29.693 
21:20	40.3	40.3	40.3	84	35.9	1	3	315	0.00	29.693 
21:25	40.3	40.3	40.3	84	35.9	2	4	315	0.00	29.693 
21:30	40.2	40.2	40.2	84	35.8	1	4	315	0.00	29.694 
21:35	40.2	40.2	40.2	85	36.1	0	2	315	0.00	29.694 
21:40	40.1	40.1	40.1	85	36.0	1	4	315	0.00	29.694 
21:45	40.1	40.1	40.1	86	36.3	1	4	292	0.00	29.697 
21:50	40.1	40.1	40.1	86	36.3	1	3	292	0.00	29.697 
21:55	39.9	39.9	39.9	87	36.4	1	5	292	0.00	29.697 
22:00	39.9	39.9	39.9	87	36.4	1	4	292	0.00	29.700 
22:05	39.9	39.9	39.9	87	36.4	2	5	292	0.00	29.700 
22:10	39.9	39.9	39.9	86	36.1	2	4	270	0.00	29.700 
22:15	39.9	39.9	39.9	86	36.1	2	4	292	0.00	29.701 
22:20	39.9	39.9	39.9	86	36.1	1	5	270	0.00	29.701 
22:25	39.9	39.9	39.9	86	36.1	1	4	292	0.00	29.701 
22:30	39.8	39.8	39.8	86	36.0	2	5	315	0.00	29.701 
22:35	39.6	39.6	39.6	86	35.8	1	4	292	0.00	29.701 
22:40	39.6	39.6	39.6	87	36.1	1	3	292	0.00	29.701 
22:45	39.6	39.6	39.6	87	36.1	0	2	292	0.00	29.703 
22:50	39.6	39.6	39.6	87	36.1	1	2	292	0.00	29.703 
22:55	39.6	39.6	39.6	88	36.3	1	4	292	0.00	29.703 
23:00	39.5	39.5	39.5	88	36.2	1	3	292	0.00	29.704 
23:05	39.5	39.5	39.5	88	36.2	1	5	292	0.00	29.704 
23:10	39.3	39.3	39.3	88	36.0	1	6	292	0.00	29.704 
23:15	39.3	39.3	39.3	88	36.0	0	2	292	0.00	29.707 
23:20	39.3	39.3	39.3	88	36.0	0	2	292	0.00	29.707 
23:25	39.3	39.3	39.3	89	36.3	0	2	292	0.00	29.707 
23:30	39.3	39.3	39.3	89	36.3	0	2	292	0.00	29.708 
23:35	39.3	39.3	39.3	89	36.3	0	1	292	0.00	29.708 
23:40	39.3	39.3	39.3	89	36.3	0	1	292	0.00	29.708 
23:45	39.3	39.3	39.3	89	36.3	0	1	292	0.00	29.707 
23:50	39.3	39.3	39.3	90	36.6	0	1	292	0.00	29.707 
23:55	39.3	39.3	39.3	90	36.6	0	1	292	0.00	29.707 

CoCoRaHS
IN-AL-39
A2 Web Hosting
Creative Commons License
GoDaddy
search engine by freefind advanced

loaded 2018-11-17 12:52:33 • last modified 2010-11-18 10:43:29
Privacy PolicyDisclaimer
• wx.awcolley.com is powered by PmWiki v.2002016 •
• all content (unless otherwise noted) © 2018 A W Colley